AAL1582 KLAX-KSEA
Flight info
| Callsign | AAL1582 |
|---|---|
| Flight time | N/A |
| Altitude | 38000 |
| Route | KLAX/24L LADYJ4 CSTRO DCT SHIMR DCT LKV HAWKZ8 KSEA/SONDR I34R |
| Aircraft | B38M/M-SDE1FGHILORVWXY/HB1 |
Departure
| Time | 2026-05-08 00:11 |
|---|---|
| Airport | Los Angeles International Airport (KLAX) |
Arrival
| Time | N/A |
|---|---|
| Airport | Seattle–Tacoma International Airport (KSEA) |
| Time | Latitude | Longitude | Altitude | Speed | Heading |
|---|---|---|---|---|---|
| 2026-05-07 23:49 | 33.94643 | -118.40642 | 128 ft | 0 kts | 286° |
| 2026-05-08 00:01 | 33.94640 | -118.40628 | 125 ft | 4 kts | 273° |
| 2026-05-08 00:01 | 33.94639 | -118.40600 | 128 ft | 3 kts | 276° |
| 2026-05-08 00:01 | 33.94631 | -118.40573 | 128 ft | 4 kts | 315° |
| 2026-05-08 00:01 | 33.94610 | -118.40560 | 126 ft | 2 kts | 352° |
| 2026-05-08 00:02 | 33.94608 | -118.40559 | 126 ft | 2 kts | 352° |
| 2026-05-08 00:04 | 33.94609 | -118.40560 | 128 ft | 1 kts | 352° |
| 2026-05-08 00:05 | 33.94656 | -118.40567 | 126 ft | 12 kts | 352° |
| 2026-05-08 00:05 | 33.94744 | -118.40581 | 127 ft | 11 kts | 352° |
| 2026-05-08 00:05 | 33.94800 | -118.40592 | 126 ft | 9 kts | 349° |
| 2026-05-08 00:05 | 33.94863 | -118.40578 | 124 ft | 11 kts | 59° |
| 2026-05-08 00:06 | 33.94879 | -118.40464 | 127 ft | 18 kts | 82° |
| 2026-05-08 00:06 | 33.94899 | -118.40280 | 127 ft | 25 kts | 83° |
| 2026-05-08 00:06 | 33.94915 | -118.40121 | 126 ft | 17 kts | 83° |
| 2026-05-08 00:06 | 33.94931 | -118.40074 | 128 ft | 0 kts | 35° |
| 2026-05-08 00:10 | 33.94936 | -118.40070 | 126 ft | 4 kts | 27° |
| 2026-05-08 00:10 | 33.95018 | -118.40105 | 124 ft | 23 kts | 289° |
| 2026-05-08 00:10 | 33.94973 | -118.40619 | 126 ft | 105 kts | 263° |
| 2026-05-08 00:11 | 33.94841 | -118.41806 | 161 ft | 175 kts | 260° |
| 2026-05-08 00:11 | 33.94708 | -118.43343 | 946 ft | 191 kts | 266° |
| 2026-05-08 00:11 | 33.94706 | -118.44871 | 1852 ft | 184 kts | 272° |
| 2026-05-08 00:11 | 33.94772 | -118.46501 | 2043 ft | 207 kts | 274° |
| 2026-05-08 00:12 | 33.94777 | -118.48316 | 2692 ft | 225 kts | 269° |
| 2026-05-08 00:12 | 33.94655 | -118.50174 | 3696 ft | 224 kts | 266° |
| 2026-05-08 00:12 | 33.94496 | -118.52039 | 4772 ft | 225 kts | 263° |
| 2026-05-08 00:12 | 33.94226 | -118.53951 | 5376 ft | 244 kts | 263° |
| 2026-05-08 00:13 | 33.93970 | -118.56051 | 5999 ft | 262 kts | 264° |
| 2026-05-08 00:13 | 33.93742 | -118.58267 | 6809 ft | 269 kts | 265° |
| 2026-05-08 00:13 | 33.93561 | -118.60534 | 7600 ft | 277 kts | 271° |
| 2026-05-08 00:13 | 33.93963 | -118.62761 | 7655 ft | 273 kts | 298° |
| 2026-05-08 00:14 | 33.95172 | -118.64493 | 7773 ft | 273 kts | 323° |
| 2026-05-08 00:14 | 33.96785 | -118.65745 | 8013 ft | 279 kts | 327° |
| 2026-05-08 00:14 | 33.98418 | -118.66963 | 9004 ft | 276 kts | 336° |
| 2026-05-08 00:14 | 34.00297 | -118.67493 | 9886 ft | 281 kts | 0° |
| 2026-05-08 00:15 | 34.02277 | -118.67409 | 10580 ft | 293 kts | 2° |
| 2026-05-08 00:15 | 34.04387 | -118.67327 | 11001 ft | 313 kts | 2° |
| 2026-05-08 00:15 | 34.06620 | -118.67216 | 11523 ft | 328 kts | 3° |
| 2026-05-08 00:15 | 34.08914 | -118.66859 | 12170 ft | 336 kts | 13° |
| 2026-05-08 00:16 | 34.11217 | -118.66285 | 12990 ft | 340 kts | 12° |
| 2026-05-08 00:16 | 34.13555 | -118.65738 | 13799 ft | 345 kts | 12° |
| 2026-05-08 00:16 | 34.15935 | -118.65189 | 14527 ft | 350 kts | 12° |
| 2026-05-08 00:16 | 34.18337 | -118.64640 | 15272 ft | 353 kts | 12° |
| 2026-05-08 00:17 | 34.20767 | -118.64086 | 15994 ft | 358 kts | 12° |
| 2026-05-08 00:17 | 34.23226 | -118.63542 | 16701 ft | 362 kts | 9° |
| 2026-05-08 00:17 | 34.25755 | -118.63608 | 17404 ft | 367 kts | 352° |
| 2026-05-08 00:17 | 34.28277 | -118.64155 | 18101 ft | 371 kts | 352° |
| 2026-05-08 00:18 | 34.30841 | -118.64719 | 18703 ft | 375 kts | 351° |
| 2026-05-08 00:18 | 34.33410 | -118.65298 | 19339 ft | 378 kts | 351° |
| 2026-05-08 00:18 | 34.36005 | -118.65887 | 19942 ft | 381 kts | 351° |
| 2026-05-08 00:18 | 34.38624 | -118.66484 | 20554 ft | 384 kts | 351° |
| 2026-05-08 00:19 | 34.41261 | -118.67086 | 21143 ft | 387 kts | 351° |
| 2026-05-08 00:19 | 34.43925 | -118.67627 | 21722 ft | 390 kts | 353° |
| 2026-05-08 00:19 | 34.46622 | -118.68148 | 22294 ft | 394 kts | 352° |
| 2026-05-08 00:19 | 34.49340 | -118.68680 | 22861 ft | 397 kts | 352° |
| 2026-05-08 00:20 | 34.52084 | -118.69219 | 23416 ft | 401 kts | 352° |
| 2026-05-08 00:20 | 34.54849 | -118.69763 | 23890 ft | 404 kts | 352° |
| 2026-05-08 00:20 | 34.57636 | -118.70312 | 24382 ft | 406 kts | 352° |
| 2026-05-08 00:20 | 34.60433 | -118.70863 | 24858 ft | 409 kts | 352° |
| 2026-05-08 00:21 | 34.63249 | -118.71418 | 25328 ft | 411 kts | 352° |
| 2026-05-08 00:21 | 34.66082 | -118.71976 | 25794 ft | 413 kts | 352° |
| 2026-05-08 00:21 | 34.68927 | -118.72538 | 26252 ft | 416 kts | 352° |
| 2026-05-08 00:21 | 34.71765 | -118.73259 | 26664 ft | 420 kts | 342° |
| 2026-05-08 00:22 | 34.74393 | -118.74827 | 27171 ft | 422 kts | 333° |
| 2026-05-08 00:22 | 34.76961 | -118.76576 | 27572 ft | 425 kts | 333° |
| 2026-05-08 00:22 | 34.79549 | -118.78338 | 27983 ft | 428 kts | 333° |
| 2026-05-08 00:22 | 34.82148 | -118.80119 | 28426 ft | 430 kts | 333° |
| 2026-05-08 00:23 | 34.84762 | -118.81915 | 28805 ft | 433 kts | 333° |
| 2026-05-08 00:23 | 34.87394 | -118.83725 | 29195 ft | 436 kts | 333° |
| 2026-05-08 00:23 | 34.90046 | -118.85549 | 29579 ft | 439 kts | 333° |
| 2026-05-08 00:23 | 34.92713 | -118.87385 | 29965 ft | 442 kts | 332° |
| 2026-05-08 00:24 | 34.95397 | -118.89234 | 30297 ft | 444 kts | 332° |
| 2026-05-08 00:24 | 34.98095 | -118.91094 | 30609 ft | 447 kts | 332° |
| 2026-05-08 00:24 | 35.00806 | -118.92964 | 30923 ft | 449 kts | 332° |
| 2026-05-08 00:24 | 35.03537 | -118.94850 | 31231 ft | 452 kts | 332° |
| 2026-05-08 00:25 | 35.06243 | -118.96721 | 31538 ft | 454 kts | 332° |
| 2026-05-08 00:25 | 35.09000 | -118.98627 | 31837 ft | 457 kts | 332° |
| 2026-05-08 00:25 | 35.11771 | -119.00545 | 32153 ft | 459 kts | 332° |
| 2026-05-08 00:25 | 35.14546 | -119.02467 | 32545 ft | 459 kts | 332° |
| 2026-05-08 00:26 | 35.17321 | -119.04391 | 32960 ft | 458 kts | 332° |
| 2026-05-08 00:26 | 35.20089 | -119.06311 | 33387 ft | 458 kts | 332° |
| 2026-05-08 00:26 | 35.22859 | -119.08234 | 33810 ft | 457 kts | 332° |
| 2026-05-08 00:26 | 35.25616 | -119.10150 | 34198 ft | 456 kts | 332° |
| 2026-05-08 00:27 | 35.28374 | -119.12068 | 34562 ft | 455 kts | 332° |
| 2026-05-08 00:27 | 35.31119 | -119.13979 | 34936 ft | 454 kts | 332° |
| 2026-05-08 00:27 | 35.33856 | -119.15885 | 35292 ft | 452 kts | 332° |
| 2026-05-08 00:27 | 35.36590 | -119.17791 | 35641 ft | 451 kts | 332° |
| 2026-05-08 00:28 | 35.39311 | -119.19689 | 35985 ft | 450 kts | 331° |
| 2026-05-08 00:28 | 35.42025 | -119.21583 | 36299 ft | 449 kts | 331° |
| 2026-05-08 00:28 | 35.44804 | -119.23289 | 36642 ft | 445 kts | 342° |
| 2026-05-08 00:28 | 35.47798 | -119.24224 | 36972 ft | 444 kts | 348° |
| 2026-05-08 00:29 | 35.50788 | -119.25185 | 37188 ft | 444 kts | 346° |
| 2026-05-08 00:29 | 35.53776 | -119.26142 | 37453 ft | 444 kts | 346° |
| 2026-05-08 00:29 | 35.56770 | -119.27072 | 37707 ft | 444 kts | 346° |
| 2026-05-08 00:29 | 35.59767 | -119.27984 | 37946 ft | 444 kts | 346° |
| 2026-05-08 00:30 | 35.65759 | -119.29784 | 38005 ft | 442 kts | 346° |
| 2026-05-08 00:30 | 35.71730 | -119.31574 | 38010 ft | 442 kts | 346° |
| 2026-05-08 00:31 | 35.77699 | -119.33366 | 38007 ft | 442 kts | 346° |
| 2026-05-08 00:31 | 35.83672 | -119.35162 | 38010 ft | 442 kts | 346° |
| 2026-05-08 00:32 | 35.89653 | -119.36963 | 38007 ft | 442 kts | 346° |
| 2026-05-08 00:32 | 35.95626 | -119.38765 | 38008 ft | 442 kts | 346° |
| 2026-05-08 00:33 | 36.01608 | -119.40572 | 38006 ft | 443 kts | 346° |
| 2026-05-08 00:33 | 36.07593 | -119.42384 | 38013 ft | 443 kts | 346° |
| 2026-05-08 00:34 | 36.13576 | -119.44196 | 38018 ft | 443 kts | 346° |
| 2026-05-08 00:34 | 36.19559 | -119.46012 | 38017 ft | 443 kts | 346° |
| 2026-05-08 00:35 | 36.25543 | -119.47831 | 38020 ft | 443 kts | 346° |
| 2026-05-08 00:35 | 36.31536 | -119.49657 | 38015 ft | 443 kts | 346° |
| 2026-05-08 00:36 | 36.37522 | -119.51482 | 38017 ft | 443 kts | 346° |
| 2026-05-08 00:36 | 36.43512 | -119.53312 | 38017 ft | 444 kts | 346° |
| 2026-05-08 00:37 | 36.49513 | -119.55148 | 38014 ft | 444 kts | 346° |
| 2026-05-08 00:38 | 36.57495 | -119.57594 | 38010 ft | 444 kts | 346° |
| 2026-05-08 00:38 | 36.63502 | -119.59439 | 38009 ft | 444 kts | 346° |
| 2026-05-08 00:39 | 36.69507 | -119.61286 | 38012 ft | 445 kts | 346° |
| 2026-05-08 00:39 | 36.75510 | -119.63135 | 38012 ft | 445 kts | 346° |
| 2026-05-08 00:40 | 36.81518 | -119.64989 | 38010 ft | 445 kts | 345° |
| 2026-05-08 00:40 | 36.87529 | -119.66847 | 38015 ft | 445 kts | 345° |
| 2026-05-08 00:41 | 36.93544 | -119.68709 | 38012 ft | 446 kts | 345° |
| 2026-05-08 00:41 | 36.99607 | -119.70589 | 38014 ft | 446 kts | 345° |
| 2026-05-08 00:42 | 37.05631 | -119.72461 | 38009 ft | 446 kts | 345° |
| 2026-05-08 00:42 | 37.11655 | -119.74335 | 38019 ft | 446 kts | 345° |
| 2026-05-08 00:43 | 37.17680 | -119.76212 | 38030 ft | 446 kts | 345° |
| 2026-05-08 00:43 | 37.23710 | -119.78094 | 38025 ft | 446 kts | 345° |
| 2026-05-08 00:44 | 37.29739 | -119.79979 | 38035 ft | 446 kts | 345° |
| 2026-05-08 00:44 | 37.35763 | -119.81865 | 38029 ft | 446 kts | 345° |
| 2026-05-08 00:45 | 37.41785 | -119.83754 | 38051 ft | 446 kts | 345° |
| 2026-05-08 00:45 | 37.47809 | -119.85646 | 38049 ft | 446 kts | 345° |
| 2026-05-08 00:46 | 37.53830 | -119.87542 | 38051 ft | 446 kts | 345° |
| 2026-05-08 00:46 | 37.59855 | -119.89440 | 38049 ft | 447 kts | 345° |
| 2026-05-08 00:47 | 37.65889 | -119.91346 | 38060 ft | 447 kts | 345° |
| 2026-05-08 00:47 | 37.71920 | -119.93255 | 38060 ft | 447 kts | 345° |
| 2026-05-08 00:48 | 37.77953 | -119.95166 | 38049 ft | 447 kts | 345° |
| 2026-05-08 00:48 | 37.83989 | -119.97081 | 38065 ft | 448 kts | 345° |
| 2026-05-08 00:49 | 37.90033 | -119.99003 | 38049 ft | 447 kts | 345° |
| 2026-05-08 00:49 | 37.96075 | -120.00926 | 38064 ft | 448 kts | 345° |
| 2026-05-08 00:50 | 38.02116 | -120.02853 | 38060 ft | 448 kts | 345° |
| 2026-05-08 00:50 | 38.08162 | -120.04784 | 38073 ft | 448 kts | 345° |
| 2026-05-08 00:51 | 38.14201 | -120.06716 | 38075 ft | 448 kts | 345° |
| 2026-05-08 00:51 | 38.20243 | -120.08653 | 38085 ft | 448 kts | 345° |
| 2026-05-08 00:52 | 38.26344 | -120.09834 | 38092 ft | 449 kts | 356° |
| 2026-05-08 00:52 | 38.32585 | -120.10450 | 38110 ft | 451 kts | 354° |
| 2026-05-08 00:53 | 38.38833 | -120.11047 | 38106 ft | 450 kts | 354° |
| 2026-05-08 00:53 | 38.45082 | -120.11618 | 38112 ft | 450 kts | 354° |
| 2026-05-08 00:54 | 38.51332 | -120.12187 | 38124 ft | 450 kts | 354° |
| 2026-05-08 00:54 | 38.57583 | -120.12758 | 38133 ft | 450 kts | 354° |
| 2026-05-08 00:55 | 38.63828 | -120.13330 | 38165 ft | 450 kts | 354° |
| 2026-05-08 00:55 | 38.70078 | -120.13902 | 38198 ft | 451 kts | 354° |
| 2026-05-08 00:56 | 38.76331 | -120.14476 | 38211 ft | 450 kts | 354° |
| 2026-05-08 00:56 | 38.82576 | -120.15051 | 38225 ft | 450 kts | 354° |
| 2026-05-08 00:57 | 38.88823 | -120.15626 | 38236 ft | 450 kts | 354° |
| 2026-05-08 00:57 | 38.95074 | -120.16203 | 38220 ft | 450 kts | 354° |
| 2026-05-08 00:58 | 39.01319 | -120.16782 | 38196 ft | 450 kts | 354° |
| 2026-05-08 00:58 | 39.07559 | -120.17360 | 38171 ft | 450 kts | 354° |
| 2026-05-08 00:59 | 39.13803 | -120.17939 | 38182 ft | 450 kts | 354° |
| 2026-05-08 00:59 | 39.20039 | -120.18518 | 38214 ft | 450 kts | 354° |
| 2026-05-08 01:00 | 39.26277 | -120.19098 | 38231 ft | 449 kts | 354° |
| 2026-05-08 01:00 | 39.32510 | -120.19681 | 38230 ft | 449 kts | 354° |
| 2026-05-08 01:01 | 39.38744 | -120.20263 | 38233 ft | 449 kts | 354° |
| 2026-05-08 01:01 | 39.44980 | -120.20847 | 38200 ft | 449 kts | 354° |
| 2026-05-08 01:02 | 39.51208 | -120.21430 | 38154 ft | 449 kts | 354° |
| 2026-05-08 01:02 | 39.57395 | -120.22012 | 38109 ft | 449 kts | 354° |
| 2026-05-08 01:03 | 39.63624 | -120.22600 | 38078 ft | 448 kts | 354° |
| 2026-05-08 01:03 | 39.69846 | -120.23186 | 38082 ft | 448 kts | 354° |
| 2026-05-08 01:04 | 39.76067 | -120.23774 | 38069 ft | 448 kts | 354° |
| 2026-05-08 01:04 | 39.82284 | -120.24362 | 38044 ft | 448 kts | 354° |
| 2026-05-08 01:05 | 39.88496 | -120.24951 | 38021 ft | 447 kts | 354° |
| 2026-05-08 01:05 | 39.94706 | -120.25541 | 38009 ft | 447 kts | 354° |
| 2026-05-08 01:06 | 40.00907 | -120.26131 | 38011 ft | 447 kts | 354° |
| 2026-05-08 01:06 | 40.07106 | -120.26722 | 38008 ft | 447 kts | 354° |